Time;durP1;ratioP1;P1;durP2;ratioP2;P2;SDS_P1;SDS_P2;PMS_P1;PMS_P2;Temp;Humidity;BMP_temperature;BMP_pressure;BME280_temperature;BME280_humidity;BME280_pressure;Samples;Min_cycle;Max_cycle;Signal;HPM_P1;HPM_P2
2024/02/23 00:00:32;;;;;;;3.53;1.90;;;6.30;1.00;;;;;;5162065;27;20458;-67
2024/02/23 00:02:59;;;;;;;5.03;1.70;;;6.30;1.00;;;;;;5161650;27;20492;-63
2024/02/23 00:05:27;;;;;;;2.50;1.53;;;6.30;1.00;;;;;;5161908;27;20488;-73
2024/02/23 00:07:54;;;;;;;2.97;1.90;;;6.20;1.00;;;;;;5162042;27;20462;-62
2024/02/23 00:10:23;;;;;;;2.47;1.67;;;6.20;1.00;;;;;;5161194;27;20923;-64
2024/02/23 00:12:50;;;;;;;3.73;2.27;;;6.20;1.00;;;;;;5159529;27;20540;-66
2024/02/23 00:15:17;;;;;;;2.47;1.47;;;6.20;1.00;;;;;;5161281;27;20458;-67
2024/02/23 00:17:45;;;;;;;2.27;1.60;;;6.10;1.00;;;;;;5161165;27;20511;-64
2024/02/23 00:20:12;;;;;;;2.67;1.50;;;6.10;1.00;;;;;;5161727;27;20502;-66
2024/02/23 00:22:40;;;;;;;2.90;1.50;;;6.00;1.00;;;;;;5161075;27;20944;-64
2024/02/23 00:25:07;;;;;;;2.40;1.60;;;6.10;1.00;;;;;;5160635;27;20453;-64
2024/02/23 00:27:36;;;;;;;2.50;1.67;;;6.10;1.00;;;;;;5160554;27;20453;-64
2024/02/23 00:30:05;;;;;;;2.40;1.77;;;6.10;1.00;;;;;;5161131;27;20897;-63
2024/02/23 00:32:32;;;;;;;5.13;1.50;;;6.10;1.00;;;;;;5161334;27;20534;-64
2024/02/23 00:35:00;;;;;;;3.60;1.90;;;5.90;1.00;;;;;;5161767;27;20552;-66
2024/02/23 00:37:27;;;;;;;2.77;1.70;;;5.90;1.00;;;;;;5162008;27;20740;-69
2024/02/23 00:39:54;;;;;;;4.00;2.07;;;5.80;1.00;;;;;;5161822;27;20505;-65
2024/02/23 00:42:21;;;;;;;2.50;1.70;;;5.70;1.00;;;;;;5160719;27;20495;-65
2024/02/23 00:44:51;;;;;;;2.50;1.60;;;5.70;1.00;;;;;;5161113;27;20457;-66
2024/02/23 00:47:18;;;;;;;2.80;1.70;;;5.60;1.00;;;;;;5161514;27;20874;-70
2024/02/23 00:49:46;;;;;;;2.60;1.70;;;5.60;5.20;;;;;;5161169;27;20533;-64
2024/02/23 00:52:13;;;;;;;2.60;2.00;;;5.50;5.10;;;;;;5160904;27;20431;-66
2024/02/23 00:54:40;;;;;;;3.23;2.03;;;5.50;1.00;;;;;;5160971;27;20531;-69
2024/02/23 00:57:08;;;;;;;3.10;2.10;;;5.40;1.00;;;;;;5161071;27;20454;-63
2024/02/23 00:59:35;;;;;;;2.87;1.97;;;5.40;1.00;;;;;;5161031;27;20460;-64
2024/02/23 01:02:04;;;;;;;2.50;1.90;;;5.30;16.60;;;;;;5161111;27;20513;-64
2024/02/23 01:04:32;;;;;;;2.60;1.80;;;5.30;26.30;;;;;;5160743;27;20472;-63
2024/02/23 01:06:59;;;;;;;3.53;1.80;;;5.30;39.80;;;;;;5160589;27;20458;-63
2024/02/23 01:09:27;;;;;;;3.33;1.87;;;5.30;67.90;;;;;;5160455;27;20463;-64
2024/02/23 01:11:54;;;;;;;3.00;2.10;;;5.30;87.10;;;;;;5160323;27;20552;-64
2024/02/23 01:14:21;;;;;;;3.50;1.80;;;5.30;95.50;;;;;;5160040;27;20542;-65
2024/02/23 01:16:48;;;;;;;2.60;1.87;;;5.30;83.00;;;;;;5160113;27;20487;-65
2024/02/23 01:19:18;;;;;;;3.37;1.93;;;5.30;94.10;;;;;;5159767;27;20462;-63
2024/02/23 01:21:45;;;;;;;2.97;1.90;;;5.30;99.90;;;;;;5160132;27;20544;-64
2024/02/23 01:24:13;;;;;;;3.10;2.10;;;5.30;99.90;;;;;;5158991;27;20540;-64
2024/02/23 01:26:41;;;;;;;2.80;2.07;;;5.30;99.90;;;;;;5159765;27;20459;-63
2024/02/23 01:29:08;;;;;;;2.93;1.93;;;5.30;99.90;;;;;;5159925;27;20465;-64
2024/02/23 01:31:35;;;;;;;2.80;2.10;;;5.30;99.90;;;;;;5159920;27;20485;-63
2024/02/23 01:34:02;;;;;;;3.43;2.10;;;5.30;99.90;;;;;;5160549;27;20485;-63
2024/02/23 01:36:31;;;;;;;4.90;2.30;;;5.40;99.90;;;;;;5159375;27;20489;-63
2024/02/23 01:38:58;;;;;;;3.23;2.40;;;5.40;99.90;;;;;;5160049;27;20801;-66
2024/02/23 01:41:25;;;;;;;3.00;1.90;;;5.40;99.90;;;;;;5161154;27;20561;-65
2024/02/23 01:43:53;;;;;;;3.23;1.90;;;5.40;84.20;;;;;;5160206;27;20474;-65
2024/02/23 01:46:20;;;;;;;4.53;2.53;;;5.40;54.70;;;;;;5159206;27;20432;-64
2024/02/23 01:48:47;;;;;;;4.80;2.20;;;5.40;54.10;;;;;;5160327;27;20975;-64
2024/02/23 01:51:15;;;;;;;5.20;2.37;;;5.40;58.30;;;;;;5159896;27;20453;-64
2024/02/23 01:53:44;;;;;;;6.27;2.40;;;5.50;38.80;;;;;;5159140;27;20490;-63
2024/02/23 01:56:13;;;;;;;6.37;2.13;;;5.50;47.30;;;;;;5160341;27;20457;-64
2024/02/23 01:58:41;;;;;;;5.80;2.27;;;5.50;23.40;;;;;;5159939;27;20523;-64
2024/02/23 02:01:08;;;;;;;6.33;2.50;;;5.50;1.00;;;;;;5160481;27;20543;-64
2024/02/23 02:03:37;;;;;;;6.60;2.50;;;5.40;3.60;;;;;;5160761;27;20745;-66
2024/02/23 02:06:06;;;;;;;4.10;2.10;;;5.50;8.50;;;;;;5160256;27;20557;-63
2024/02/23 02:08:34;;;;;;;3.83;2.27;;;5.50;14.20;;;;;;5160215;27;20500;-65
2024/02/23 02:11:03;;;;;;;4.47;2.10;;;5.50;28.70;;;;;;5160372;27;20461;-66
2024/02/23 02:13:31;;;;;;;6.13;2.40;;;5.40;35.30;;;;;;5160776;27;20938;-69
2024/02/23 02:15:59;;;;;;;10.17;2.30;;;5.40;28.30;;;;;;5159629;27;20498;-63
2024/02/23 02:18:26;;;;;;;3.00;1.73;;;5.40;28.60;;;;;;5159193;27;20449;-65
2024/02/23 02:20:56;;;;;;;2.97;2.30;;;5.50;46.90;;;;;;5159547;27;20492;-64
2024/02/23 02:23:24;;;;;;;6.10;1.87;;;5.40;27.20;;;;;;5159397;27;20449;-63
2024/02/23 02:25:54;;;;;;;3.60;1.80;;;5.40;2.40;;;;;;5159077;27;20424;-63
2024/02/23 02:28:24;;;;;;;3.90;1.90;;;5.50;11.40;;;;;;5158783;27;20457;-64
2024/02/23 02:30:52;;;;;;;4.13;2.30;;;5.40;14.10;;;;;;5159332;27;20481;-62
2024/02/23 02:33:19;;;;;;;4.73;2.50;;;5.40;1.00;;;;;;5160077;27;20545;-63
2024/02/23 02:35:46;;;;;;;4.17;2.40;;;5.40;1.00;;;;;;5161405;27;20459;-63
2024/02/23 02:38:14;;;;;;;3.50;1.90;;;5.40;7.60;;;;;;5163245;27;20493;-64
2024/02/23 02:40:41;;;;;;;4.30;2.10;;;5.40;6.30;;;;;;5163255;27;20962;-63
2024/02/23 02:43:09;;;;;;;3.80;2.30;;;5.40;13.50;;;;;;5163289;27;20488;-65
2024/02/23 02:45:37;;;;;;;5.43;2.00;;;5.40;22.10;;;;;;5163593;27;20548;-66
2024/02/23 02:48:05;;;;;;;4.37;2.47;;;5.30;34.80;;;;;;5163108;27;20458;-62
2024/02/23 02:50:32;;;;;;;5.10;2.67;;;5.30;45.60;;;;;;5163432;27;20453;-64
2024/02/23 02:52:59;;;;;;;3.00;2.30;;;5.30;44.40;;;;;;5162685;27;20496;-62
2024/02/23 02:55:27;;;;;;;4.30;2.60;;;5.20;40.10;;;;;;5163023;27;20457;-62
2024/02/23 02:57:54;;;;;;;5.87;2.80;;;5.20;47.30;;;;;;5163287;27;20477;-64
2024/02/23 03:00:21;;;;;;;3.60;2.70;;;5.20;72.10;;;;;;5162412;27;20485;-63
2024/02/23 03:02:50;;;;;;;6.13;3.17;;;5.20;54.90;;;;;;5162669;27;20500;-62
2024/02/23 03:05:17;;;;;;;3.93;2.33;;;5.20;75.00;;;;;;5162794;27;20449;-62
2024/02/23 03:07:44;;;;;;;4.50;2.20;;;5.20;83.70;;;;;;5162054;27;20454;-62
2024/02/23 03:10:11;;;;;;;4.47;2.50;;;5.20;96.10;;;;;;5162940;27;20555;-62
2024/02/23 03:12:39;;;;;;;3.37;2.00;;;5.10;99.90;;;;;;5162633;27;20552;-64
2024/02/23 03:15:07;;;;;;;5.57;2.40;;;5.10;84.30;;;;;;5162512;27;20588;-62
2024/02/23 03:17:34;;;;;;;5.63;2.70;;;5.10;78.20;;;;;;5162333;27;20453;-62
2024/02/23 03:20:05;;;;;;;5.67;2.20;;;5.10;37.30;;;;;;5162364;27;20485;-62
2024/02/23 03:22:32;;;;;;;6.63;2.77;;;5.10;45.00;;;;;;5162174;27;20465;-61
2024/02/23 03:24:59;;;;;;;3.03;1.80;;;5.10;82.20;;;;;;5162344;27;20942;-62
2024/02/23 03:27:30;;;;;;;3.37;2.20;;;5.10;76.40;;;;;;5162189;27;20526;-61
2024/02/23 03:29:58;;;;;;;3.43;2.50;;;5.10;61.90;;;;;;5162413;27;20453;-62
2024/02/23 03:32:25;;;;;;;7.63;2.30;;;5.10;61.40;;;;;;5161672;27;20494;-62
2024/02/23 03:34:52;;;;;;;4.87;1.90;;;5.10;72.30;;;;;;5161967;27;20942;-61
2024/02/23 03:37:21;;;;;;;5.20;2.10;;;5.10;57.30;;;;;;5161872;27;20547;-62
2024/02/23 03:39:49;;;;;;;3.90;1.90;;;5.10;42.40;;;;;;5162251;27;20462;-61
2024/02/23 03:42:16;;;;;;;4.90;2.30;;;5.10;34.90;;;;;;5162395;27;20715;-62
2024/02/23 03:44:43;;;;;;;4.40;1.90;;;5.10;45.00;;;;;;5161623;27;20449;-61
2024/02/23 03:47:12;;;;;;;4.67;1.80;;;5.00;39.40;;;;;;5160859;27;20500;-61
2024/02/23 03:49:39;;;;;;;6.83;1.70;;;5.00;47.50;;;;;;5161910;27;20558;-62
2024/02/23 03:52:06;;;;;;;3.60;2.17;;;5.10;16.90;;;;;;5161694;27;20887;-61
2024/02/23 03:54:35;;;;;;;3.47;1.70;;;5.10;11.80;;;;;;5161095;27;20489;-61
2024/02/23 03:57:02;;;;;;;4.47;1.80;;;5.10;6.40;;;;;;5162346;27;20571;-61
2024/02/23 03:59:30;;;;;;;9.13;2.00;;;5.10;1.00;;;;;;5161827;27;20462;-62
2024/02/23 04:01:57;;;;;;;5.60;2.10;;;5.10;1.00;;;;;;5161715;27;20510;-61
2024/02/23 04:04:24;;;;;;;4.50;2.00;;;5.10;1.00;;;;;;5161394;27;20513;-62
2024/02/23 04:06:52;;;;;;;4.80;1.80;;;5.10;1.00;;;;;;5161391;27;20462;-61
2024/02/23 04:09:19;;;;;;;3.90;2.13;;;5.10;17.50;;;;;;5161435;27;20489;-61
2024/02/23 04:11:50;;;;;;;4.80;1.90;;;5.10;9.50;;;;;;5161596;27;20966;-62
2024/02/23 04:14:17;;;;;;;6.77;2.10;;;5.10;15.70;;;;;;5161153;27;20572;-62
2024/02/23 04:16:44;;;;;;;3.77;1.87;;;5.10;1.00;;;;;;5161271;27;20504;-62
2024/02/23 04:19:11;;;;;;;3.77;1.80;;;5.10;1.00;;;;;;5161392;27;20468;-62
2024/02/23 04:21:39;;;;;;;7.53;2.10;;;5.10;1.00;;;;;;5161498;27;20458;-62
2024/02/23 04:24:08;;;;;;;4.00;1.47;;;5.10;1.00;;;;;;5160815;27;20553;-62
2024/02/23 04:26:35;;;;;;;5.73;1.83;;;5.00;1.00;;;;;;5161122;27;20468;-62
2024/02/23 04:29:04;;;;;;;6.90;2.27;;;5.00;1.00;;;;;;5161363;27;20481;-62
2024/02/23 04:31:31;;;;;;;5.07;2.23;;;5.10;1.00;;;;;;5161091;27;20544;-62
2024/02/23 04:33:58;;;;;;;6.40;4.00;;;5.10;1.00;;;;;;5160899;27;20485;-61
2024/02/23 04:36:25;;;;;;;6.27;2.03;;;5.10;1.00;;;;;;5160802;27;20544;-62
2024/02/23 04:38:53;;;;;;;4.97;2.03;;;5.10;1.00;;;;;;5160439;27;20842;-62
2024/02/23 04:41:22;;;;;;;4.23;1.60;;;5.10;1.00;;;;;;5161207;27;20458;-61
2024/02/23 04:43:49;;;;;;;3.67;1.97;;;5.10;1.00;;;;;;5160788;27;20462;-61
2024/02/23 04:46:18;;;;;;;3.67;1.73;;;5.00;1.00;;;;;;5160325;27;20486;-62
2024/02/23 04:48:45;;;;;;;3.70;1.67;;;5.10;1.00;;;;;;5159422;27;20464;-62
2024/02/23 04:51:12;;;;;;;5.03;1.97;;;5.10;1.00;;;;;;5159737;27;20875;-61
2024/02/23 04:53:40;;;;;;;9.00;2.07;;;5.10;1.00;;;;;;5160008;27;21008;-62
2024/02/23 04:56:07;;;;;;;5.57;2.47;;;5.10;1.00;;;;;;5160053;27;20509;-61
2024/02/23 04:58:34;;;;;;;6.43;2.00;;;5.00;1.00;;;;;;5159961;27;20511;-62
2024/02/23 05:01:03;;;;;;;4.20;1.60;;;5.00;1.00;;;;;;5160407;27;20551;-62
2024/02/23 05:03:31;;;;;;;7.40;1.97;;;5.00;1.00;;;;;;5160420;27;20462;-62
2024/02/23 05:05:59;;;;;;;4.03;2.00;;;4.90;1.00;;;;;;5160629;27;20489;-61
2024/02/23 05:08:27;;;;;;;6.37;2.00;;;4.90;1.00;;;;;;5159850;27;20837;-61
2024/02/23 05:10:54;;;;;;;3.53;1.57;;;4.90;1.00;;;;;;5159910;27;20560;-61
2024/02/23 05:13:21;;;;;;;3.67;1.70;;;5.00;1.00;;;;;;5160037;27;20552;-61
2024/02/23 05:15:49;;;;;;;4.67;2.40;;;5.00;1.00;;;;;;5159918;27;20494;-61
2024/02/23 05:18:16;;;;;;;9.90;2.37;;;5.00;1.00;;;;;;5159778;27;20450;-61
2024/02/23 05:20:44;;;;;;;5.50;2.17;;;5.00;1.00;;;;;;5159906;27;20454;-63
2024/02/23 05:23:12;;;;;;;3.67;1.80;;;5.00;1.00;;;;;;5160103;27;20511;-63
2024/02/23 05:25:39;;;;;;;5.53;1.80;;;5.10;1.00;;;;;;5133664;27;20447;-61
2024/02/23 05:28:06;;;;;;;5.80;2.43;;;5.10;1.00;;;;;;5035266;28;20900;-61
2024/02/23 05:30:34;;;;;;;5.50;2.30;;;5.10;1.00;;;;;;5034962;28;20814;-61
2024/02/23 05:33:03;;;;;;;5.40;2.17;;;5.00;1.00;;;;;;5035275;28;20481;-62
2024/02/23 05:35:30;;;;;;;7.30;1.93;;;5.00;1.00;;;;;;5034805;28;20543;-62
2024/02/23 05:37:59;;;;;;;5.83;2.10;;;5.00;1.00;;;;;;5034949;28;20566;-61
2024/02/23 05:40:26;;;;;;;4.17;1.93;;;5.00;1.00;;;;;;5034862;28;20451;-61
2024/02/23 05:42:54;;;;;;;5.50;2.00;;;5.00;1.00;;;;;;5034839;28;20459;-62
2024/02/23 05:45:22;;;;;;;5.40;1.90;;;4.90;1.00;;;;;;5034716;28;20459;-62
2024/02/23 05:47:49;;;;;;;5.20;2.17;;;4.90;1.00;;;;;;5034859;28;20475;-61
2024/02/23 05:50:17;;;;;;;6.87;2.60;;;4.90;1.00;;;;;;5034843;28;20470;-62
2024/02/23 05:52:44;;;;;;;5.77;1.73;;;4.80;1.00;;;;;;5034829;28;20804;-61
2024/02/23 05:55:13;;;;;;;3.60;1.83;;;4.80;1.00;;;;;;5034171;28;20551;-61
2024/02/23 05:57:40;;;;;;;9.10;2.20;;;4.90;1.00;;;;;;5034852;28;20565;-61
2024/02/23 06:00:11;;;;;;;6.77;2.10;;;4.80;1.00;;;;;;5034571;28;20487;-61
2024/02/23 06:02:40;;;;;;;5.20;1.90;;;4.80;1.00;;;;;;5034626;28;20495;-61
2024/02/23 06:05:08;;;;;;;5.47;2.10;;;4.70;1.00;;;;;;5034868;28;20468;-61
2024/02/23 06:07:36;;;;;;;5.23;2.47;;;4.70;1.00;;;;;;5034334;28;20760;-62
2024/02/23 06:10:04;;;;;;;7.20;1.93;;;4.60;1.00;;;;;;5034918;28;20516;-62
2024/02/23 06:12:32;;;;;;;6.70;2.03;;;4.60;1.00;;;;;;5037673;28;20558;-61
2024/02/23 06:15:00;;;;;;;7.73;2.20;;;4.50;1.00;;;;;;5039471;28;20579;-62
2024/02/23 06:17:27;;;;;;;6.20;1.90;;;4.50;1.00;;;;;;5058053;28;20484;-61
2024/02/23 06:19:57;;;;;;;6.07;2.00;;;4.50;1.00;;;;;;5058076;28;20501;-61
2024/02/23 06:22:25;;;;;;;6.70;2.33;;;4.60;1.00;;;;;;5057245;28;20534;-62
2024/02/23 06:24:52;;;;;;;4.20;2.00;;;4.60;1.00;;;;;;5057306;28;20458;-63
2024/02/23 06:27:21;;;;;;;8.77;2.63;;;4.70;1.00;;;;;;5057104;28;20471;-62
2024/02/23 06:29:50;;;;;;;5.00;2.63;;;4.70;1.00;;;;;;5057614;28;20502;-63
2024/02/23 06:32:18;;;;;;;9.00;2.00;;;4.70;1.00;;;;;;5055707;28;20510;-62
2024/02/23 06:34:46;;;;;;;6.13;2.77;;;4.70;1.00;;;;;;5054460;28;20486;-62
2024/02/23 06:37:13;;;;;;;5.03;2.13;;;4.70;1.00;;;;;;5053602;28;20454;-63
2024/02/23 06:39:40;;;;;;;6.13;2.17;;;4.70;1.00;;;;;;5054684;28;20477;-63
2024/02/23 06:42:08;;;;;;;4.10;2.37;;;4.70;1.00;;;;;;5055662;28;20472;-62
2024/02/23 06:44:35;;;;;;;4.03;1.90;;;4.70;1.00;;;;;;5055559;28;20507;-63
2024/02/23 06:47:04;;;;;;;5.40;2.50;;;4.80;1.00;;;;;;5055331;28;20582;-63
2024/02/23 06:49:31;;;;;;;7.90;2.67;;;4.80;1.00;;;;;;5056529;28;20450;-62
2024/02/23 06:51:59;;;;;;;5.27;2.30;;;4.80;1.00;;;;;;5056908;28;20514;-62
2024/02/23 06:54:26;;;;;;;3.90;2.10;;;4.80;1.00;;;;;;5055833;28;20486;-63
2024/02/23 06:56:53;;;;;;;5.83;2.23;;;4.80;1.00;;;;;;5055160;28;20510;-63
2024/02/23 06:59:24;;;;;;;5.13;2.10;;;4.80;1.00;;;;;;5055717;28;20486;-63
2024/02/23 07:01:52;;;;;;;3.30;2.10;;;4.80;1.00;;;;;;5055155;28;20530;-62
2024/02/23 07:04:20;;;;;;;6.93;2.60;;;4.80;1.00;;;;;;5055511;28;20473;-62
2024/02/23 07:06:48;;;;;;;5.50;2.60;;;4.80;1.00;;;;;;5055651;28;20489;-64
2024/02/23 07:09:15;;;;;;;5.43;2.87;;;4.80;1.00;;;;;;5056047;28;20461;-63
2024/02/23 07:11:43;;;;;;;4.50;1.90;;;4.80;1.00;;;;;;5057062;28;20511;-62
2024/02/23 07:14:12;;;;;;;9.20;2.73;;;4.80;1.00;;;;;;5057206;28;20462;-62
2024/02/23 07:16:40;;;;;;;6.50;3.30;;;4.80;1.00;;;;;;5056805;28;20866;-62
2024/02/23 07:19:07;;;;;;;4.70;2.03;;;4.80;1.00;;;;;;5056851;28;20466;-62
2024/02/23 07:21:36;;;;;;;8.13;2.70;;;4.80;1.00;;;;;;5056736;28;20727;-62
2024/02/23 07:24:03;;;;;;;3.70;1.90;;;4.80;1.00;;;;;;5056786;28;20458;-62
2024/02/23 07:26:31;;;;;;;6.23;2.50;;;4.70;1.00;;;;;;5057053;28;20764;-62
2024/02/23 07:28:58;;;;;;;5.67;2.57;;;4.70;1.00;;;;;;5056712;28;20527;-62
2024/02/23 07:31:25;;;;;;;4.63;2.40;;;4.80;1.00;;;;;;5056833;28;20753;-63
2024/02/23 07:33:53;;;;;;;7.33;2.30;;;4.80;1.00;;;;;;5056679;28;20465;-62
2024/02/23 07:36:20;;;;;;;6.20;2.53;;;4.80;1.00;;;;;;5056750;28;20494;-63
2024/02/23 07:38:49;;;;;;;6.17;2.13;;;4.80;1.00;;;;;;5056314;28;20568;-62
2024/02/23 07:41:17;;;;;;;5.53;2.10;;;4.90;1.00;;;;;;5056659;28;20513;-62
2024/02/23 07:43:45;;;;;;;4.33;2.00;;;4.90;1.00;;;;;;5056841;28;20474;-62
2024/02/23 07:46:13;;;;;;;6.63;2.13;;;5.00;1.00;;;;;;5056851;28;20462;-62
2024/02/23 07:48:40;;;;;;;5.33;2.20;;;5.00;1.00;;;;;;5055203;28;20561;-62
2024/02/23 07:51:07;;;;;;;5.50;2.90;;;5.00;1.00;;;;;;5054671;28;20511;-61
2024/02/23 07:53:35;;;;;;;5.57;2.13;;;5.10;1.00;;;;;;5054653;28;20486;-62
2024/02/23 07:56:05;;;;;;;5.87;2.10;;;5.10;1.00;;;;;;5054461;28;20561;-62
2024/02/23 07:58:32;;;;;;;7.63;3.17;;;5.20;1.00;;;;;;5053091;28;20454;-62
2024/02/23 08:00:59;;;;;;;6.87;2.63;;;5.40;1.00;;;;;;5053944;28;20497;-62
2024/02/23 08:03:27;;;;;;;4.27;2.03;;;5.50;1.00;;;;;;5054263;28;20463;-62
2024/02/23 08:05:54;;;;;;;7.13;2.10;;;5.70;1.00;;;;;;5054424;28;20488;-62
2024/02/23 08:08:23;;;;;;;3.50;1.80;;;5.90;1.00;;;;;;5054757;28;20536;-62
2024/02/23 08:10:51;;;;;;;6.03;2.30;;;6.10;1.00;;;;;;5054864;28;20528;-62
2024/02/23 08:13:19;;;;;;;3.57;1.77;;;6.30;1.00;;;;;;5054396;28;20464;-61
2024/02/23 08:15:46;;;;;;;6.53;2.00;;;6.50;1.00;;;;;;5053819;28;20581;-62
2024/02/23 08:18:14;;;;;;;7.30;2.60;;;6.50;1.00;;;;;;5054637;28;20490;-61
2024/02/23 08:20:41;;;;;;;5.70;2.27;;;6.20;1.00;;;;;;5053983;28;20880;-62
2024/02/23 08:23:09;;;;;;;3.27;2.10;;;6.00;1.00;;;;;;5054076;28;20751;-62
2024/02/23 08:25:37;;;;;;;6.40;2.00;;;5.90;1.00;;;;;;5054497;28;20556;-63
2024/02/23 08:28:05;;;;;;;5.43;2.20;;;5.80;1.00;;;;;;5055541;28;20879;-62
2024/02/23 08:30:35;;;;;;;6.07;1.90;;;5.80;1.00;;;;;;5054461;28;20459;-62
2024/02/23 08:33:03;;;;;;;5.90;2.43;;;5.80;1.00;;;;;;5053590;28;20971;-62
2024/02/23 08:35:30;;;;;;;4.80;2.10;;;5.90;1.00;;;;;;5054822;28;20498;-61
2024/02/23 08:37:58;;;;;;;5.23;2.23;;;6.10;1.00;;;;;;5055072;28;20822;-62
2024/02/23 08:40:25;;;;;;;5.33;2.63;;;6.20;1.00;;;;;;5054451;28;20496;-62
2024/02/23 08:42:52;;;;;;;4.87;2.00;;;6.20;1.00;;;;;;5054044;28;20527;-61
2024/02/23 08:45:20;;;;;;;7.83;3.60;;;6.20;1.00;;;;;;5054051;28;20469;-63
2024/02/23 08:47:48;;;;;;;7.30;2.53;;;6.20;1.00;;;;;;5054517;28;20458;-62
2024/02/23 08:50:16;;;;;;;4.67;2.23;;;6.30;1.00;;;;;;5054551;28;20511;-62
2024/02/23 08:52:43;;;;;;;5.60;2.10;;;6.40;1.00;;;;;;5054415;28;20454;-62
2024/02/23 08:55:11;;;;;;;7.50;2.30;;;6.40;1.00;;;;;;5054395;28;20579;-63
2024/02/23 08:57:38;;;;;;;5.43;2.37;;;6.40;1.00;;;;;;5050722;28;20891;-62
2024/02/23 09:00:07;;;;;;;4.83;2.27;;;6.30;1.00;;;;;;5053901;27;20458;-62
2024/02/23 09:02:37;;;;;;;10.57;2.60;;;6.30;1.00;;;;;;5053239;27;20468;-62
2024/02/23 09:05:07;;;;;;;4.83;2.30;;;6.40;1.00;;;;;;5053403;28;20869;-62
2024/02/23 09:07:35;;;;;;;9.03;2.27;;;6.50;1.00;;;;;;5053465;28;20459;-61
2024/02/23 09:10:04;;;;;;;4.70;2.43;;;6.60;1.00;;;;;;5053184;28;20459;-62
2024/02/23 09:12:31;;;;;;;7.73;4.10;;;6.60;1.00;;;;;;5053015;28;20462;-62
2024/02/23 09:14:58;;;;;;;5.10;2.23;;;6.70;1.00;;;;;;5055240;27;20454;-62
2024/02/23 09:17:26;;;;;;;5.50;2.30;;;6.70;1.00;;;;;;5055181;27;20450;-62
2024/02/23 09:19:53;;;;;;;8.00;2.10;;;6.70;1.00;;;;;;5055366;28;20458;-62
2024/02/23 09:22:24;;;;;;;6.23;2.33;;;6.70;1.00;;;;;;5054484;27;20450;-61
2024/02/23 09:24:51;;;;;;;6.50;2.40;;;6.70;1.00;;;;;;5055166;28;20462;-61
2024/02/23 09:27:21;;;;;;;5.30;2.90;;;6.70;1.00;;;;;;5054711;28;20454;-62
2024/02/23 09:29:49;;;;;;;7.90;2.17;;;6.80;1.00;;;;;;5054618;28;20458;-62
2024/02/23 09:32:16;;;;;;;7.47;2.40;;;6.80;1.00;;;;;;5054598;28;20465;-62
2024/02/23 09:34:43;;;;;;;6.50;2.43;;;6.80;1.00;;;;;;5054256;28;20454;-62
2024/02/23 09:37:11;;;;;;;3.13;1.97;;;6.70;1.00;;;;;;5054538;28;20580;-62
2024/02/23 09:39:39;;;;;;;5.27;2.30;;;6.80;1.00;;;;;;5054706;28;20516;-62
2024/02/23 09:42:11;;;;;;;10.00;2.70;;;6.80;1.00;;;;;;5054841;28;20526;-62
2024/02/23 09:44:38;;;;;;;4.30;1.90;;;6.80;1.00;;;;;;5053020;28;20462;-62
2024/02/23 09:47:10;;;;;;;6.00;2.53;;;6.80;1.00;;;;;;5054459;28;20497;-61
2024/02/23 09:49:40;;;;;;;6.93;2.50;;;6.90;1.00;;;;;;5054738;28;20471;-61
2024/02/23 09:52:10;;;;;;;6.30;3.03;;;7.00;1.00;;;;;;5054015;28;20462;-61
2024/02/23 09:54:40;;;;;;;3.80;2.33;;;7.00;1.00;;;;;;5054078;28;20490;-62
2024/02/23 09:57:09;;;;;;;3.23;2.20;;;7.10;1.00;;;;;;5054429;28;20500;-62
2024/02/23 09:59:37;;;;;;;4.70;1.93;;;7.10;1.00;;;;;;5054716;28;20799;-60
2024/02/23 10:02:09;;;;;;;4.60;2.37;;;7.20;1.00;;;;;;5054649;28;20562;-62
2024/02/23 10:04:39;;;;;;;4.93;2.20;;;7.10;1.00;;;;;;5054144;28;20470;-62
2024/02/23 10:07:06;;;;;;;7.70;2.47;;;7.20;1.00;;;;;;5053811;28;20459;-62
2024/02/23 10:09:34;;;;;;;7.67;2.30;;;7.30;1.00;;;;;;5052600;28;20487;-61
2024/02/23 10:12:03;;;;;;;4.60;2.07;;;7.40;1.00;;;;;;5053993;28;20465;-62
2024/02/23 10:14:31;;;;;;;4.50;1.80;;;7.40;1.00;;;;;;5054048;28;20731;-68
2024/02/23 10:16:59;;;;;;;6.87;2.70;;;7.40;1.00;;;;;;5054010;28;20943;-65
2024/02/23 10:19:29;;;;;;;6.17;2.70;;;7.30;1.00;;;;;;5053926;28;20474;-61
2024/02/23 10:21:58;;;;;;;6.10;2.23;;;7.20;1.00;;;;;;5054067;28;20462;-62
2024/02/23 10:24:25;;;;;;;3.77;1.90;;;7.20;1.00;;;;;;5051874;28;20470;-62
2024/02/23 10:26:53;;;;;;;3.40;2.27;;;7.30;1.00;;;;;;5053605;28;20498;-62
2024/02/23 10:29:22;;;;;;;3.80;1.93;;;7.40;1.00;;;;;;5053661;28;20875;-62
2024/02/23 10:31:50;;;;;;;4.33;2.23;;;7.50;1.00;;;;;;5054280;28;20458;-61
2024/02/23 10:34:20;;;;;;;3.50;1.70;;;7.50;1.00;;;;;;5053252;28;20809;-62
2024/02/23 10:36:50;;;;;;;8.60;2.10;;;7.60;1.00;;;;;;5053861;28;20490;-62
2024/02/23 10:39:19;;;;;;;7.03;2.50;;;7.70;1.00;;;;;;5053969;28;20505;-62
2024/02/23 10:41:53;;;;;;;3.70;2.13;;;7.80;1.00;;;;;;5053957;28;20485;-62
2024/02/23 10:44:21;;;;;;;3.10;1.70;;;7.80;1.00;;;;;;5054014;28;20484;-61
2024/02/23 10:46:50;;;;;;;6.80;2.57;;;7.80;1.00;;;;;;5051650;28;20466;-62
2024/02/23 10:49:22;;;;;;;4.60;2.07;;;7.90;1.00;;;;;;5052630;28;20464;-62
2024/02/23 10:51:52;;;;;;;4.17;1.90;;;8.00;1.00;;;;;;5052985;28;20437;-63
2024/02/23 10:54:21;;;;;;;3.90;1.73;;;8.00;1.00;;;;;;5052323;28;20490;-61
2024/02/23 10:56:50;;;;;;;5.83;3.00;;;8.10;1.00;;;;;;5053616;28;20546;-62
2024/02/23 10:59:18;;;;;;;3.50;1.90;;;8.20;1.00;;;;;;5055624;28;20493;-62
2024/02/23 11:01:50;;;;;;;5.73;2.07;;;8.30;1.00;;;;;;5055505;28;20458;-62
2024/02/23 11:04:18;;;;;;;5.07;1.50;;;8.40;1.00;;;;;;5055356;28;20473;-61
2024/02/23 11:06:51;;;;;;;6.40;1.83;;;8.40;1.00;;;;;;5054784;28;20454;-62
2024/02/23 11:09:22;;;;;;;4.73;2.10;;;8.50;1.00;;;;;;5055311;28;20939;-62
2024/02/23 11:11:54;;;;;;;2.93;1.90;;;8.30;1.00;;;;;;5055786;28;20462;-61
2024/02/23 11:14:32;;;;;;;3.63;2.00;;;8.30;1.00;;;;;;5043247;28;20450;-61
2024/02/23 11:17:01;;;;;;;4.43;1.90;;;8.40;1.00;;;;;;5036350;28;20958;-62
2024/02/23 11:19:35;;;;;;;7.90;2.23;;;8.70;1.00;;;;;;5037154;28;20490;-63
2024/02/23 11:22:03;;;;;;;5.43;1.70;;;9.00;1.00;;;;;;5037017;28;20575;-61
2024/02/23 11:24:32;;;;;;;6.17;1.70;;;9.30;1.00;;;;;;5036531;28;20896;-63
2024/02/23 11:27:00;;;;;;;3.23;2.33;;;9.40;1.00;;;;;;5036755;28;20463;-62
2024/02/23 11:29:29;;;;;;;2.83;1.70;;;9.70;1.00;;;;;;5036763;28;20467;-61
2024/02/23 11:32:01;;;;;;;3.27;1.60;;;9.70;1.00;;;;;;5045982;28;20550;-62
2024/02/23 11:34:30;;;;;;;3.23;1.50;;;9.40;1.00;;;;;;5055546;28;20464;-63
2024/02/23 11:36:59;;;;;;;2.63;1.70;;;9.70;1.00;;;;;;5056478;28;20490;-63
2024/02/23 11:39:28;;;;;;;3.73;1.77;;;9.70;1.00;;;;;;5056292;28;20463;-63
2024/02/23 11:41:57;;;;;;;3.50;1.50;;;9.80;1.00;;;;;;5056521;28;20893;-62
2024/02/23 11:44:25;;;;;;;3.50;1.87;;;9.80;1.00;;;;;;5038325;28;20753;-61
2024/02/23 11:46:53;;;;;;;3.33;2.10;;;9.60;1.00;;;;;;5056368;28;20482;-61
2024/02/23 11:49:20;;;;;;;3.30;1.83;;;9.50;1.00;;;;;;5056364;28;20437;-61
2024/02/23 11:51:49;;;;;;;4.47;1.70;;;9.30;1.00;;;;;;5056604;28;20469;-61
2024/02/23 11:54:18;;;;;;;5.20;1.70;;;9.00;1.00;;;;;;5055806;28;20627;-62
2024/02/23 11:56:46;;;;;;;3.20;1.57;;;9.10;1.00;;;;;;5055558;28;20564;-62
2024/02/23 11:59:15;;;;;;;3.33;1.80;;;9.20;1.00;;;;;;5055495;28;20519;-62
2024/02/23 12:01:42;;;;;;;4.73;2.00;;;9.20;1.00;;;;;;5056072;28;20557;-62
2024/02/23 12:04:10;;;;;;;3.50;1.80;;;9.20;1.00;;;;;;5056456;28;20469;-61
2024/02/23 12:06:37;;;;;;;3.90;2.10;;;9.20;1.00;;;;;;5055925;28;20454;-61
2024/02/23 12:09:06;;;;;;;3.50;1.60;;;9.20;1.00;;;;;;5054665;28;20891;-61
2024/02/23 12:11:34;;;;;;;4.13;1.80;;;9.10;1.00;;;;;;5056255;28;20897;-62
2024/02/23 12:14:02;;;;;;;2.43;1.77;;;8.90;1.00;;;;;;5055946;28;20756;-62
2024/02/23 12:16:30;;;;;;;3.50;1.80;;;8.90;1.00;;;;;;5054985;28;20542;-62
2024/02/23 12:18:57;;;;;;;4.63;1.90;;;8.90;1.00;;;;;;5053787;28;20454;-63
2024/02/23 12:21:25;;;;;;;9.23;2.30;;;9.10;1.00;;;;;;5053875;28;20466;-63
2024/02/23 12:23:52;;;;;;;6.57;1.90;;;9.20;1.00;;;;;;5053898;28;20433;-62
2024/02/23 12:26:22;;;;;;;4.50;1.60;;;9.10;1.00;;;;;;5053715;28;20556;-62
2024/02/23 12:28:50;;;;;;;6.03;1.87;;;9.00;1.00;;;;;;5054108;28;20755;-64
2024/02/23 12:31:24;;;;;;;5.00;2.20;;;8.90;1.00;;;;;;5054196;28;20505;-63
2024/02/23 12:33:52;;;;;;;3.70;2.30;;;8.70;1.00;;;;;;5055931;28;20913;-62
2024/02/23 12:36:20;;;;;;;3.40;1.70;;;8.70;1.00;;;;;;5055889;28;20922;-62
2024/02/23 12:38:47;;;;;;;4.00;1.70;;;8.50;1.00;;;;;;5054766;28;20451;-63
2024/02/23 12:41:15;;;;;;;3.73;2.03;;;8.60;1.00;;;;;;5055247;28;20462;-62
2024/02/23 12:43:44;;;;;;;4.60;1.83;;;8.60;1.00;;;;;;5055343;28;20462;-62
2024/02/23 12:46:14;;;;;;;2.93;1.70;;;8.50;1.00;;;;;;5055812;28;20455;-63
2024/02/23 12:48:42;;;;;;;5.13;2.33;;;8.50;1.00;;;;;;5055435;28;20468;-61
2024/02/23 12:51:10;;;;;;;3.97;2.00;;;8.50;1.00;;;;;;5045589;28;20482;-63
2024/02/23 12:53:38;;;;;;;4.03;1.77;;;8.60;1.00;;;;;;5053368;28;20572;-62
2024/02/23 12:56:07;;;;;;;7.37;2.40;;;8.60;1.00;;;;;;5051801;28;20469;-62
2024/02/23 12:58:37;;;;;;;4.83;2.40;;;8.50;1.00;;;;;;5053069;28;20517;-63
2024/02/23 13:01:07;;;;;;;6.27;2.30;;;8.50;1.00;;;;;;5053067;28;20462;-62
2024/02/23 13:03:34;;;;;;;4.10;2.27;;;8.50;1.00;;;;;;5053171;28;20466;-64
2024/02/23 13:06:02;;;;;;;7.67;2.33;;;8.50;1.00;;;;;;5054125;28;20511;-63
2024/02/23 13:08:30;;;;;;;4.33;2.10;;;8.50;1.00;;;;;;5054537;28;20753;-63